createdAt,value
2019-04-29T00:01:37.837Z,2.23
2019-04-29T00:04:08.052Z,2.87
2019-04-29T00:06:38.332Z,3.80
2019-04-29T00:09:11.953Z,3.37
2019-04-29T00:11:42.192Z,3.83
2019-04-29T00:14:12.596Z,4.17
2019-04-29T00:16:55.444Z,3.07
2019-04-29T00:19:39.371Z,3.63
2019-04-29T00:22:09.994Z,2.87
2019-04-29T00:24:40.245Z,3.00
2019-04-29T00:27:10.595Z,3.87
2019-04-29T00:29:40.773Z,3.17
2019-04-29T00:32:11.224Z,3.23
2019-04-29T00:34:41.417Z,2.23
2019-04-29T00:37:33.394Z,4.00
2019-04-29T00:40:21.300Z,3.43
2019-04-29T00:43:08.417Z,2.60
2019-04-29T00:45:38.673Z,5.73
2019-04-29T00:48:08.880Z,3.23
2019-04-29T00:50:39.044Z,2.97
2019-04-29T00:53:09.413Z,3.10
2019-04-29T00:55:39.661Z,2.73
2019-04-29T00:58:09.929Z,2.20
2019-04-29T01:00:41.437Z,2.87
2019-04-29T01:03:11.728Z,2.70
2019-04-29T01:05:41.928Z,3.03
2019-04-29T01:08:12.225Z,5.67
2019-04-29T01:10:42.488Z,3.03
2019-04-29T01:13:12.787Z,2.60
2019-04-29T01:15:43.039Z,3.03
2019-04-29T01:18:13.552Z,3.20
2019-04-29T01:20:43.761Z,3.07
2019-04-29T01:23:14.053Z,3.20
2019-04-29T01:25:45.861Z,3.63
2019-04-29T01:28:22.008Z,3.47
2019-04-29T01:30:58.082Z,4.07
2019-04-29T01:33:28.497Z,4.60
2019-04-29T01:36:28.480Z,8.80
2019-04-29T01:39:01.070Z,4.13
2019-04-29T01:41:35.204Z,2.47
2019-04-29T01:44:06.335Z,2.73
2019-04-29T01:46:36.574Z,3.13
2019-04-29T01:49:06.825Z,3.80
2019-04-29T01:51:37.001Z,2.00
2019-04-29T01:54:07.269Z,3.30
2019-04-29T01:56:37.541Z,2.00
2019-04-29T01:59:07.795Z,2.80
2019-04-29T02:01:38.052Z,2.73
2019-04-29T02:04:08.354Z,2.20
2019-04-29T02:06:38.601Z,3.43
2019-04-29T02:09:12.152Z,6.57
2019-04-29T02:11:42.435Z,3.03
2019-04-29T02:14:12.696Z,3.40
2019-04-29T02:16:44.061Z,4.07
2019-04-29T02:19:14.285Z,2.37
2019-04-29T02:22:03.477Z,3.00
2019-04-29T02:24:34.789Z,2.23
2019-04-29T02:27:05.811Z,3.23
2019-04-29T02:29:36.148Z,4.23
2019-04-29T02:32:06.400Z,2.97
2019-04-29T02:34:36.573Z,2.63
2019-04-29T02:37:08.405Z,8.43
2019-04-29T02:39:46.849Z,4.00
2019-04-29T02:42:45.106Z,3.50
2019-04-29T02:45:20.282Z,2.47
2019-04-29T02:47:50.550Z,2.03
2019-04-29T02:50:20.818Z,2.40
2019-04-29T02:52:50.990Z,5.03
2019-04-29T02:55:29.618Z,3.53
2019-04-29T02:58:07.891Z,2.57
2019-04-29T03:00:57.142Z,2.37
2019-04-29T03:03:35.250Z,3.80
2019-04-29T03:06:05.424Z,3.10
2019-04-29T03:08:35.616Z,3.73
2019-04-29T03:11:05.783Z,6.07
2019-04-29T03:13:35.944Z,7.03
2019-04-29T03:16:06.208Z,5.17
2019-04-29T03:18:38.338Z,3.33
2019-04-29T03:21:21.666Z,2.50
2019-04-29T03:23:51.959Z,2.93
2019-04-29T03:26:22.365Z,6.30
2019-04-29T03:28:52.589Z,4.67
2019-04-29T03:31:22.874Z,5.03
2019-04-29T03:33:53.186Z,2.70
2019-04-29T03:36:23.463Z,7.87
2019-04-29T03:38:53.741Z,5.57
2019-04-29T03:41:23.950Z,5.13
2019-04-29T03:43:54.146Z,6.30
2019-04-29T03:46:24.326Z,3.47
2019-04-29T03:48:54.565Z,4.47
2019-04-29T03:51:24.877Z,3.53
2019-04-29T03:53:55.059Z,4.57
2019-04-29T03:56:25.366Z,5.77
2019-04-29T03:58:55.553Z,5.63
2019-04-29T04:01:47.229Z,3.07
2019-04-29T04:04:35.073Z,4.33
2019-04-29T04:07:22.674Z,5.37
2019-04-29T04:09:53.000Z,3.77
2019-04-29T04:12:23.178Z,7.57
2019-04-29T04:14:53.457Z,3.67
2019-04-29T04:17:32.281Z,6.03
2019-04-29T04:20:02.958Z,14.30
2019-04-29T04:22:46.504Z,7.90
2019-04-29T04:25:17.190Z,5.33
2019-04-29T04:27:47.462Z,6.23
2019-04-29T04:30:18.566Z,4.53
2019-04-29T04:32:48.821Z,5.90
2019-04-29T04:35:19.064Z,5.07
2019-04-29T04:37:49.234Z,4.00
2019-04-29T04:40:25.636Z,4.07
2019-04-29T04:42:55.892Z,5.67
2019-04-29T04:45:26.178Z,5.50
2019-04-29T04:47:56.397Z,5.00
2019-04-29T04:50:26.671Z,3.93
2019-04-29T04:52:56.929Z,7.20
2019-04-29T04:55:29.675Z,5.10
2019-04-29T04:57:59.912Z,7.30
2019-04-29T05:00:31.747Z,4.97
2019-04-29T05:03:02.000Z,4.63
2019-04-29T05:05:32.709Z,6.77
2019-04-29T05:08:03.002Z,7.83
2019-04-29T05:10:33.277Z,6.73
2019-04-29T05:13:03.543Z,6.67
2019-04-29T05:15:33.805Z,7.27
2019-04-29T05:18:04.181Z,5.40
2019-04-29T05:20:34.505Z,8.80
2019-04-29T05:23:05.004Z,8.67
2019-04-29T05:25:35.501Z,8.87
2019-04-29T05:28:05.781Z,6.27
2019-04-29T05:30:35.963Z,7.07
2019-04-29T05:33:06.176Z,8.87
2019-04-29T05:35:56.563Z,5.73
2019-04-29T05:38:31.069Z,5.77
2019-04-29T05:41:01.312Z,6.17
2019-04-29T05:43:56.356Z,8.23
2019-04-29T05:46:51.432Z,6.60
2019-04-29T05:49:26.862Z,6.70
2019-04-29T05:52:08.481Z,6.97
2019-04-29T05:54:38.829Z,6.77
2019-04-29T05:57:09.079Z,7.90
2019-04-29T05:59:39.386Z,10.60
2019-04-29T06:02:09.707Z,7.00
2019-04-29T06:04:40.785Z,8.60
2019-04-29T06:07:11.028Z,8.13
2019-04-29T06:09:41.318Z,8.57
2019-04-29T06:12:11.552Z,6.17
2019-04-29T06:14:41.772Z,7.63
2019-04-29T06:17:12.012Z,6.77
2019-04-29T06:19:42.355Z,7.37
2019-04-29T06:22:12.648Z,5.50
2019-04-29T06:24:42.934Z,8.13
2019-04-29T06:27:13.216Z,11.03
2019-04-29T06:29:43.456Z,7.37
2019-04-29T06:32:13.925Z,6.30
2019-04-29T06:34:44.133Z,6.53
2019-04-29T06:37:14.383Z,7.50
2019-04-29T06:39:44.699Z,5.43
2019-04-29T06:42:15.481Z,5.07
2019-04-29T06:44:49.101Z,4.97
2019-04-29T06:47:18.794Z,6.73
2019-04-29T06:49:49.081Z,7.53
2019-04-29T06:52:19.403Z,9.80
2019-04-29T06:54:49.693Z,5.80
2019-04-29T06:57:20.000Z,5.07
2019-04-29T06:59:50.290Z,4.40
2019-04-29T07:02:21.129Z,9.83
2019-04-29T07:04:52.186Z,4.97
2019-04-29T07:07:22.889Z,6.23
2019-04-29T07:09:56.829Z,7.83
2019-04-29T07:12:26.465Z,4.43
2019-04-29T07:14:56.750Z,6.33
2019-04-29T07:17:26.937Z,4.77
2019-04-29T07:19:57.648Z,3.57
2019-04-29T07:22:31.110Z,6.23
2019-04-29T07:25:01.156Z,3.60
2019-04-29T07:27:34.843Z,4.77
2019-04-29T07:30:06.539Z,6.40
2019-04-29T07:32:35.353Z,6.30
2019-04-29T07:35:09.981Z,4.73
2019-04-29T07:37:38.042Z,3.63
2019-04-29T07:40:09.385Z,4.00
2019-04-29T07:42:39.804Z,4.93
2019-04-29T07:45:43.379Z,3.57
2019-04-29T07:48:06.394Z,4.90
2019-04-29T07:50:34.472Z,2.20
2019-04-29T07:53:05.217Z,3.00
2019-04-29T07:55:35.504Z,3.43
2019-04-29T07:58:05.851Z,3.23
2019-04-29T08:00:36.646Z,2.83
2019-04-29T08:03:07.759Z,7.93
2019-04-29T08:05:40.344Z,4.40
2019-04-29T08:08:10.667Z,4.93
2019-04-29T08:10:53.590Z,3.87
2019-04-29T08:13:14.507Z,4.63
2019-04-29T08:15:44.959Z,3.90
2019-04-29T08:18:16.161Z,4.30
2019-04-29T08:20:47.276Z,3.07
2019-04-29T08:23:17.508Z,6.00
2019-04-29T08:25:50.719Z,4.50
2019-04-29T08:28:19.741Z,5.63
2019-04-29T08:30:50.435Z,4.77
2019-04-29T08:33:20.685Z,5.80
2019-04-29T08:35:50.924Z,4.57
2019-04-29T08:38:21.299Z,4.73
2019-04-29T08:40:51.744Z,4.83
2019-04-29T08:43:31.360Z,5.43
2019-04-29T08:46:07.890Z,7.50
2019-04-29T08:48:38.300Z,6.33
2019-04-29T08:51:08.591Z,7.00
2019-04-29T08:53:38.821Z,4.57
2019-04-29T08:56:10.250Z,5.77
2019-04-29T08:58:44.093Z,6.33
2019-04-29T09:01:15.000Z,5.00
2019-04-29T09:03:45.427Z,4.53
2019-04-29T09:06:15.742Z,4.83
2019-04-29T09:08:54.621Z,9.20
2019-04-29T09:11:17.921Z,8.57
2019-04-29T09:13:48.261Z,3.77
2019-04-29T09:16:18.546Z,7.17
2019-04-29T09:18:48.795Z,6.20
2019-04-29T09:21:19.011Z,6.20
2019-04-29T09:23:49.349Z,7.07
2019-04-29T09:26:26.069Z,7.53
2019-04-29T09:28:59.695Z,4.97
2019-04-29T09:31:28.335Z,6.93
2019-04-29T09:34:06.288Z,6.20
2019-04-29T09:36:30.699Z,7.23
2019-04-29T09:39:01.028Z,4.97
2019-04-29T09:41:38.752Z,8.40
2019-04-29T09:44:35.191Z,7.40
2019-04-29T09:47:08.534Z,10.83
2019-04-29T09:49:40.714Z,8.93
2019-04-29T09:52:11.091Z,7.90
2019-04-29T09:54:41.428Z,5.00
2019-04-29T09:57:11.720Z,6.03
2019-04-29T09:59:46.299Z,4.00
2019-04-29T10:02:35.766Z,5.33
2019-04-29T10:05:31.481Z,4.70
2019-04-29T10:08:01.815Z,9.53
2019-04-29T10:10:32.188Z,5.87
2019-04-29T10:13:02.556Z,5.97
2019-04-29T10:15:43.176Z,7.80
2019-04-29T10:18:25.045Z,4.20
2019-04-29T10:20:57.875Z,5.40
2019-04-29T10:23:28.234Z,8.03
2019-04-29T10:25:58.593Z,5.57
2019-04-29T10:28:28.932Z,5.07
2019-04-29T10:30:59.270Z,4.83
2019-04-29T10:33:29.664Z,6.70
2019-04-29T10:35:59.890Z,4.27
2019-04-29T10:38:30.108Z,4.77
2019-04-29T10:41:16.049Z,4.27
2019-04-29T10:44:05.306Z,7.60
2019-04-29T10:46:48.819Z,4.60
2019-04-29T10:49:34.743Z,5.17
2019-04-29T10:52:04.648Z,6.63
2019-04-29T10:54:35.475Z,6.47
2019-04-29T10:57:06.186Z,7.70
2019-04-29T10:59:40.676Z,7.07
2019-04-29T11:02:33.932Z,5.20
2019-04-29T11:05:35.043Z,7.23
2019-04-29T11:08:18.854Z,5.73
2019-04-29T11:10:49.283Z,5.90
2019-04-29T11:13:19.524Z,6.53
2019-04-29T11:15:51.257Z,4.97
2019-04-29T11:18:23.218Z,5.17
2019-04-29T11:20:55.313Z,8.13
2019-04-29T11:23:50.594Z,10.77
2019-04-29T11:26:37.344Z,4.87
2019-04-29T11:29:09.520Z,5.00
2019-04-29T11:31:39.598Z,5.17
2019-04-29T11:34:25.067Z,4.73
2019-04-29T11:36:55.308Z,6.47
2019-04-29T11:39:25.595Z,5.07
2019-04-29T11:41:59.654Z,5.50
2019-04-29T11:44:28.338Z,5.87
2019-04-29T11:46:58.764Z,5.03
2019-04-29T11:49:40.611Z,4.93
2019-04-29T11:52:10.893Z,7.70
2019-04-29T11:54:41.318Z,8.87
2019-04-29T11:57:17.136Z,3.73
2019-04-29T12:00:10.117Z,3.60
2019-04-29T12:02:47.044Z,5.33
2019-04-29T12:05:27.478Z,7.03
2019-04-29T12:07:57.711Z,4.77
2019-04-29T12:10:27.949Z,6.43
2019-04-29T12:12:59.786Z,7.23
2019-04-29T12:15:45.071Z,5.10
2019-04-29T12:18:19.068Z,5.30
2019-04-29T12:21:08.407Z,5.50
2019-04-29T12:23:38.769Z,7.67
2019-04-29T12:26:10.618Z,7.40
2019-04-29T12:28:42.871Z,5.40
2019-04-29T12:31:20.356Z,5.17
2019-04-29T12:33:55.997Z,6.00
2019-04-29T12:36:26.295Z,6.53
2019-04-29T12:39:42.226Z,4.87
2019-04-29T12:42:14.216Z,6.90
2019-04-29T12:44:59.729Z,5.27
2019-04-29T12:47:32.049Z,7.97
2019-04-29T12:50:02.331Z,4.37
2019-04-29T12:52:32.673Z,7.50
2019-04-29T12:55:19.325Z,5.70
2019-04-29T12:57:35.658Z,5.63
2019-04-29T13:00:09.029Z,5.73
2019-04-29T13:03:00.274Z,6.20
2019-04-29T13:05:58.425Z,5.53
2019-04-29T13:08:28.333Z,5.30
2019-04-29T13:11:01.389Z,9.37
2019-04-29T13:13:33.427Z,5.83
2019-04-29T13:16:22.065Z,5.57
2019-04-29T13:19:30.020Z,5.93
2019-04-29T13:22:01.352Z,5.73
2019-04-29T13:24:31.571Z,5.23
2019-04-29T13:27:15.403Z,6.20
2019-04-29T13:29:36.200Z,5.97
2019-04-29T13:32:05.854Z,8.47
2019-04-29T13:34:39.780Z,5.77
2019-04-29T13:37:18.343Z,6.47
2019-04-29T13:39:42.053Z,5.30
2019-04-29T13:42:15.628Z,4.57
2019-04-29T13:45:04.424Z,8.17
2019-04-29T13:47:33.432Z,5.67
2019-04-29T13:50:20.125Z,6.03
2019-04-29T13:52:42.899Z,7.73
2019-04-29T13:55:17.953Z,6.80
2019-04-29T13:57:49.556Z,5.33
2019-04-29T14:00:28.660Z,5.30
2019-04-29T14:03:14.741Z,3.90
2019-04-29T14:05:45.175Z,3.83
2019-04-29T14:08:15.471Z,5.67
2019-04-29T14:10:46.807Z,5.70
2019-04-29T14:13:20.988Z,6.80
2019-04-29T14:15:50.021Z,6.20
2019-04-29T14:18:20.368Z,10.97
2019-04-29T14:20:51.874Z,7.77
2019-04-29T14:23:22.660Z,7.67
2019-04-29T14:25:52.896Z,6.83
2019-04-29T14:28:23.162Z,6.50
2019-04-29T14:30:55.725Z,6.13
2019-04-29T14:33:30.927Z,6.43
2019-04-29T14:36:05.783Z,5.33
2019-04-29T14:38:40.638Z,5.93
2019-04-29T14:41:08.118Z,10.80
2019-04-29T14:43:45.949Z,9.10
2019-04-29T14:46:40.968Z,6.67
2019-04-29T14:49:15.280Z,9.00
2019-04-29T14:51:45.664Z,6.97
2019-04-29T14:54:17.260Z,7.17
2019-04-29T14:56:47.704Z,7.77
2019-04-29T14:59:18.194Z,6.60
2019-04-29T15:02:01.961Z,5.90
2019-04-29T15:04:44.259Z,10.37
2019-04-29T15:07:14.722Z,8.90
2019-04-29T15:09:58.254Z,4.73
2019-04-29T15:13:11.878Z,7.67
2019-04-29T15:16:04.549Z,5.10
2019-04-29T15:19:03.187Z,6.97
2019-04-29T15:21:42.922Z,6.00
2019-04-29T15:24:10.113Z,4.90
2019-04-29T15:26:40.405Z,7.03
2019-04-29T15:29:10.714Z,6.10
2019-04-29T15:31:42.590Z,4.57
2019-04-29T15:34:14.570Z,7.43
2019-04-29T15:36:45.309Z,7.23
2019-04-29T15:39:15.903Z,7.20
2019-04-29T15:41:46.507Z,9.27
2019-04-29T15:44:20.288Z,8.40
2019-04-29T15:46:48.989Z,5.80
2019-04-29T15:49:20.085Z,6.33
2019-04-29T15:51:51.316Z,4.70
2019-04-29T15:54:21.712Z,6.13
2019-04-29T15:56:52.047Z,4.20
2019-04-29T15:59:22.299Z,3.90
2019-04-29T16:01:52.677Z,5.07
2019-04-29T16:04:47.304Z,5.63
2019-04-29T16:07:58.288Z,4.03
2019-04-29T16:10:58.017Z,7.73
2019-04-29T16:13:50.132Z,6.63
2019-04-29T16:16:37.023Z,4.90
2019-04-29T16:19:25.149Z,4.60
2019-04-29T16:22:20.003Z,8.40
2019-04-29T16:25:04.838Z,5.23
2019-04-29T16:27:54.043Z,4.10
2019-04-29T16:30:42.225Z,7.77
2019-04-29T16:33:30.659Z,4.60
2019-04-29T16:36:19.270Z,5.07
2019-04-29T16:39:08.235Z,4.60
2019-04-29T16:42:14.985Z,5.50
2019-04-29T16:44:46.390Z,5.67
2019-04-29T16:47:17.194Z,6.93
2019-04-29T16:49:47.607Z,7.37
2019-04-29T16:52:18.011Z,4.27
2019-04-29T16:54:48.469Z,5.27
2019-04-29T16:57:18.906Z,8.60
2019-04-29T16:59:49.369Z,4.90
2019-04-29T17:02:20.045Z,8.47
2019-04-29T17:04:50.550Z,7.77
2019-04-29T17:07:33.285Z,5.10
2019-04-29T17:10:21.338Z,6.87
2019-04-29T17:12:51.953Z,6.37
2019-04-29T17:15:25.374Z,5.40
2019-04-29T17:17:54.429Z,6.97
2019-04-29T17:20:24.825Z,6.47
2019-04-29T17:22:55.211Z,7.73
2019-04-29T17:25:25.522Z,6.30
2019-04-29T17:28:02.462Z,6.83
2019-04-29T17:31:14.363Z,7.90
2019-04-29T17:33:54.566Z,6.57
2019-04-29T17:36:25.875Z,6.70
2019-04-29T17:38:56.439Z,8.67
2019-04-29T17:41:26.748Z,9.37
2019-04-29T17:44:18.680Z,9.43
2019-04-29T17:47:13.334Z,6.77
2019-04-29T17:49:51.246Z,6.00
2019-04-29T17:52:25.960Z,9.40
2019-04-29T17:55:02.959Z,6.83
2019-04-29T17:57:38.350Z,6.27
2019-04-29T18:00:41.389Z,7.30
2019-04-29T18:03:41.314Z,7.97
2019-04-29T18:06:18.806Z,7.30
2019-04-29T18:08:56.625Z,6.90
2019-04-29T18:11:28.547Z,8.20
2019-04-29T18:13:58.912Z,4.77
2019-04-29T18:16:39.544Z,5.37
2019-04-29T18:19:30.879Z,7.33
2019-04-29T18:22:32.437Z,4.53
2019-04-29T18:25:09.697Z,7.87
2019-04-29T18:27:40.037Z,7.53
2019-04-29T18:30:12.248Z,5.63
2019-04-29T18:32:46.623Z,7.90
2019-04-29T18:35:15.370Z,7.67
2019-04-29T18:37:46.627Z,6.67
2019-04-29T18:40:17.187Z,6.47
2019-04-29T18:42:48.684Z,7.17
2019-04-29T18:45:19.169Z,5.87
2019-04-29T18:47:49.541Z,8.83
2019-04-29T18:50:19.844Z,3.57
2019-04-29T18:52:50.216Z,5.33
2019-04-29T18:55:20.525Z,5.70
2019-04-29T18:57:50.838Z,7.67
2019-04-29T19:00:21.913Z,6.50
2019-04-29T19:02:57.331Z,6.80
2019-04-29T19:05:32.422Z,4.13
2019-04-29T19:08:12.186Z,6.43
2019-04-29T19:10:37.377Z,8.83
2019-04-29T19:13:14.210Z,6.23
2019-04-29T19:15:44.178Z,8.00
2019-04-29T19:18:12.477Z,6.83
2019-04-29T19:20:46.114Z,5.73
2019-04-29T19:23:22.163Z,6.97
2019-04-29T19:25:49.732Z,7.37
2019-04-29T19:28:29.455Z,10.20
2019-04-29T19:30:56.063Z,12.50
2019-04-29T19:33:25.199Z,6.00
2019-04-29T19:35:55.599Z,7.63
2019-04-29T19:38:26.045Z,7.93
2019-04-29T19:40:56.343Z,5.20
2019-04-29T19:43:26.719Z,7.07
2019-04-29T19:45:57.459Z,6.60
2019-04-29T19:48:28.745Z,6.67
2019-04-29T19:51:18.023Z,5.77
2019-04-29T19:53:31.152Z,9.13
2019-04-29T19:56:04.470Z,7.60
2019-04-29T19:58:33.740Z,6.13
2019-04-29T20:01:11.793Z,7.57
2019-04-29T20:03:42.359Z,5.30
2019-04-29T20:06:21.457Z,5.13
2019-04-29T20:08:53.984Z,5.53
2019-04-29T20:11:18.815Z,8.10
2019-04-29T20:14:02.265Z,6.20
2019-04-29T20:16:44.838Z,4.60
2019-04-29T20:19:33.370Z,6.37
2019-04-29T20:22:07.454Z,4.47
2019-04-29T20:24:36.290Z,6.13
2019-04-29T20:27:06.754Z,7.63
2019-04-29T20:29:38.709Z,12.13
2019-04-29T20:32:09.562Z,8.57
2019-04-29T20:34:40.056Z,8.77
2019-04-29T20:37:15.167Z,5.27
2019-04-29T20:39:42.466Z,5.87
2019-04-29T20:42:12.950Z,6.47
2019-04-29T20:44:45.766Z,7.63
2019-04-29T20:47:22.151Z,7.60
2019-04-29T20:49:47.160Z,6.53
2019-04-29T20:52:33.008Z,8.90
2019-04-29T20:55:05.542Z,6.40
2019-04-29T20:57:35.938Z,6.07
2019-04-29T21:00:07.248Z,7.10
2019-04-29T21:02:37.838Z,8.23
2019-04-29T21:05:10.011Z,8.80
2019-04-29T21:07:40.422Z,8.87
2019-04-29T21:10:11.189Z,10.97
2019-04-29T21:13:00.660Z,9.37
2019-04-29T21:15:52.243Z,11.63
2019-04-29T21:18:18.869Z,10.93
2019-04-29T21:20:49.093Z,13.37
2019-04-29T21:23:19.391Z,14.70
2019-04-29T21:25:49.669Z,13.57
2019-04-29T21:28:19.922Z,12.43
2019-04-29T21:30:50.207Z,15.40
2019-04-29T21:33:21.503Z,11.27
2019-04-29T21:36:11.740Z,12.63
2019-04-29T21:39:01.923Z,13.30
2019-04-29T21:41:36.460Z,15.77
2019-04-29T21:44:07.276Z,11.73
2019-04-29T21:46:37.578Z,12.40
2019-04-29T21:49:11.678Z,10.00
2019-04-29T21:51:41.725Z,10.40
2019-04-29T21:54:14.178Z,10.43
2019-04-29T21:56:46.961Z,10.93
2019-04-29T21:59:15.848Z,11.40
2019-04-29T22:01:46.537Z,10.57
2019-04-29T22:04:16.814Z,9.77
2019-04-29T22:06:47.466Z,11.07
2019-04-29T22:09:17.883Z,11.50
2019-04-29T22:11:48.321Z,13.00
2019-04-29T22:14:18.688Z,12.37
2019-04-29T22:16:54.246Z,13.70
2019-04-29T22:19:26.058Z,15.13
2019-04-29T22:21:57.261Z,13.90
2019-04-29T22:24:26.330Z,13.63
2019-04-29T22:27:04.163Z,11.97
2019-04-29T22:29:31.961Z,12.03
2019-04-29T22:32:01.232Z,11.03
2019-04-29T22:34:31.493Z,11.67
2019-04-29T22:37:01.737Z,13.00
2019-04-29T22:39:32.044Z,13.17
2019-04-29T22:42:27.745Z,12.17
2019-04-29T22:44:57.369Z,13.23
2019-04-29T22:47:28.083Z,15.50
2019-04-29T22:49:58.674Z,15.93
2019-04-29T22:52:31.456Z,13.30
2019-04-29T22:55:02.337Z,13.57
2019-04-29T22:57:32.813Z,13.90
2019-04-29T23:00:05.013Z,14.23
2019-04-29T23:02:35.151Z,13.77
2019-04-29T23:05:05.553Z,14.37
2019-04-29T23:07:37.801Z,14.77
2019-04-29T23:10:08.168Z,14.67
2019-04-29T23:12:38.422Z,15.07
2019-04-29T23:15:08.738Z,19.10
2019-04-29T23:17:42.609Z,16.03
2019-04-29T23:20:35.508Z,16.07
2019-04-29T23:23:10.772Z,16.87
2019-04-29T23:25:52.034Z,17.70
2019-04-29T23:28:26.764Z,18.60
2019-04-29T23:30:54.629Z,19.40
2019-04-29T23:33:26.390Z,18.63
2019-04-29T23:35:56.859Z,18.97
2019-04-29T23:38:27.188Z,19.73
2019-04-29T23:40:57.462Z,20.60
2019-04-29T23:43:28.560Z,18.83
2019-04-29T23:46:00.481Z,19.93
2019-04-29T23:48:38.865Z,20.57
2019-04-29T23:51:03.117Z,20.47
2019-04-29T23:53:35.065Z,21.13
2019-04-29T23:56:09.507Z,19.80
2019-04-29T23:58:46.760Z,20.60
